sensor_id;sensor_type;location;lat;lon;timestamp;P1;durP1;ratioP1;P2;durP2;ratioP2
32451;SDS011;45528;52.102;5.242;2022-11-27T00:01:08;12.6;;;4.7;;
32451;SDS011;45528;52.102;5.242;2022-11-27T00:02:45;16.4;;;5.2;;
32451;SDS011;45528;52.102;5.242;2022-11-27T00:05:57;16.4;;;5.2;;
32451;SDS011;45528;52.102;5.242;2022-11-27T00:07:33;14.5;;;5.11;;
32451;SDS011;45528;52.102;5.242;2022-11-27T00:09:10;14.5;;;5.11;;
32451;SDS011;45528;52.102;5.242;2022-11-27T00:12:26;11.1;;;4.41;;
32451;SDS011;45528;52.102;5.242;2022-11-27T00:14:02;13.2;;;4.41;;
32451;SDS011;45528;52.102;5.242;2022-11-27T00:15:38;10.6;;;4.2;;
32451;SDS011;45528;52.102;5.242;2022-11-27T00:18:50;12.0;;;4.2;;
32451;SDS011;45528;52.102;5.242;2022-11-27T00:20:27;13.5;;;4.2;;
32451;SDS011;45528;52.102;5.242;2022-11-27T00:22:03;17.7;;;5.0;;
32451;SDS011;45528;52.102;5.242;2022-11-27T00:23:39;13.6;;;4.41;;
32451;SDS011;45528;52.102;5.242;2022-11-27T00:26:52;17.11;;;4.5;;
32451;SDS011;45528;52.102;5.242;2022-11-27T00:28:28;11.6;;;4.41;;
32451;SDS011;45528;52.102;5.242;2022-11-27T00:30:06;12.8;;;4.41;;
32451;SDS011;45528;52.102;5.242;2022-11-27T00:33:20;14.2;;;5.0;;
32451;SDS011;45528;52.102;5.242;2022-11-27T00:34:56;10.7;;;4.1;;
32451;SDS011;45528;52.102;5.242;2022-11-27T00:36:33;12.2;;;3.9;;
32451;SDS011;45528;52.102;5.242;2022-11-27T00:39:46;13.3;;;4.5;;
32451;SDS011;45528;52.102;5.242;2022-11-27T00:41:23;11.5;;;4.2;;
32451;SDS011;45528;52.102;5.242;2022-11-27T00:43:03;14.2;;;4.0;;
32451;SDS011;45528;52.102;5.242;2022-11-27T00:44:39;13.6;;;4.1;;
32451;SDS011;45528;52.102;5.242;2022-11-27T00:47:53;13.6;;;4.1;;
32451;SDS011;45528;52.102;5.242;2022-11-27T00:49:29;10.7;;;3.9;;
32451;SDS011;45528;52.102;5.242;2022-11-27T00:51:07;9.5;;;3.7;;
32451;SDS011;45528;52.102;5.242;2022-11-27T00:54:23;15.6;;;4.41;;
32451;SDS011;45528;52.102;5.242;2022-11-27T00:55:59;11.0;;;4.2;;
32451;SDS011;45528;52.102;5.242;2022-11-27T00:57:36;9.71;;;4.0;;
32451;SDS011;45528;52.102;5.242;2022-11-27T00:59:13;13.8;;;4.5;;
32451;SDS011;45528;52.102;5.242;2022-11-27T01:02:30;15.3;;;4.41;;
32451;SDS011;45528;52.102;5.242;2022-11-27T01:04:06;11.7;;;4.2;;
32451;SDS011;45528;52.102;5.242;2022-11-27T01:05:47;16.61;;;4.41;;
32451;SDS011;45528;52.102;5.242;2022-11-27T01:09:01;12.4;;;4.3;;
32451;SDS011;45528;52.102;5.242;2022-11-27T01:10:39;10.8;;;3.9;;
32451;SDS011;45528;52.102;5.242;2022-11-27T01:12:23;13.6;;;4.1;;
32451;SDS011;45528;52.102;5.242;2022-11-27T01:13:59;10.8;;;4.2;;
32451;SDS011;45528;52.102;5.242;2022-11-27T01:17:15;13.7;;;4.2;;
32451;SDS011;45528;52.102;5.242;2022-11-27T01:18:52;14.7;;;4.2;;
32451;SDS011;45528;52.102;5.242;2022-11-27T01:20:30;9.9;;;4.1;;
32451;SDS011;45528;52.102;5.242;2022-11-27T01:23:43;14.3;;;4.7;;
32451;SDS011;45528;52.102;5.242;2022-11-27T01:25:21;15.3;;;4.8;;
32451;SDS011;45528;52.102;5.242;2022-11-27T01:26:57;11.9;;;4.5;;
32451;SDS011;45528;52.102;5.242;2022-11-27T01:28:33;14.8;;;4.61;;
32451;SDS011;45528;52.102;5.242;2022-11-27T01:31:49;14.8;;;4.61;;
32451;SDS011;45528;52.102;5.242;2022-11-27T01:33:25;12.1;;;4.2;;
32451;SDS011;45528;52.102;5.242;2022-11-27T01:35:02;11.9;;;4.5;;
32451;SDS011;45528;52.102;5.242;2022-11-27T01:38:15;14.9;;;4.8;;
32451;SDS011;45528;52.102;5.242;2022-11-27T01:39:51;15.3;;;4.5;;
32451;SDS011;45528;52.102;5.242;2022-11-27T01:41:28;11.5;;;4.61;;
32451;SDS011;45528;52.102;5.242;2022-11-27T01:44:50;14.0;;;4.7;;
32451;SDS011;45528;52.102;5.242;2022-11-27T01:46:31;12.1;;;4.61;;
32451;SDS011;45528;52.102;5.242;2022-11-27T01:48:12;13.6;;;4.1;;
32451;SDS011;45528;52.102;5.242;2022-11-27T01:49:49;11.9;;;4.2;;
32451;SDS011;45528;52.102;5.242;2022-11-27T01:51:31;13.3;;;3.9;;
32451;SDS011;45528;52.102;5.242;2022-11-27T01:54:51;13.0;;;4.3;;
32451;SDS011;45528;52.102;5.242;2022-11-27T01:56:32;12.8;;;4.3;;
32451;SDS011;45528;52.102;5.242;2022-11-27T01:58:11;12.1;;;4.5;;
32451;SDS011;45528;52.102;5.242;2022-11-27T01:59:54;11.2;;;3.8;;
32451;SDS011;45528;52.102;5.242;2022-11-27T02:03:10;10.7;;;4.5;;
32451;SDS011;45528;52.102;5.242;2022-11-27T02:04:46;10.4;;;3.9;;
32451;SDS011;45528;52.102;5.242;2022-11-27T02:06:24;11.3;;;3.7;;
32451;SDS011;45528;52.102;5.242;2022-11-27T02:09:44;9.6;;;4.2;;
32451;SDS011;45528;52.102;5.242;2022-11-27T02:11:21;12.5;;;4.1;;
32451;SDS011;45528;52.102;5.242;2022-11-27T02:13:10;10.9;;;4.3;;
32451;SDS011;45528;52.102;5.242;2022-11-27T02:14:53;15.0;;;4.2;;
32451;SDS011;45528;52.102;5.242;2022-11-27T02:16:39;15.2;;;4.0;;
32451;SDS011;45528;52.102;5.242;2022-11-27T02:20:23;14.3;;;4.61;;
32451;SDS011;45528;52.102;5.242;2022-11-27T02:22:09;13.7;;;4.5;;
32451;SDS011;45528;52.102;5.242;2022-11-27T02:24:18;13.1;;;4.41;;
32451;SDS011;45528;52.102;5.242;2022-11-27T02:26:15;13.0;;;4.5;;
32451;SDS011;45528;52.102;5.242;2022-11-27T02:28:21;15.9;;;4.1;;
32451;SDS011;45528;52.102;5.242;2022-11-27T02:30:09;9.81;;;4.61;;
32451;SDS011;45528;52.102;5.242;2022-11-27T02:31:55;13.0;;;4.8;;
32451;SDS011;45528;52.102;5.242;2022-11-27T02:33:36;16.61;;;5.2;;
32451;SDS011;45528;52.102;5.242;2022-11-27T02:37:05;13.0;;;5.0;;
32451;SDS011;45528;52.102;5.242;2022-11-27T02:38:54;16.11;;;4.61;;
32451;SDS011;45528;52.102;5.242;2022-11-27T02:40:41;10.3;;;4.61;;
32451;SDS011;45528;52.102;5.242;2022-11-27T02:42:26;12.5;;;5.0;;
32451;SDS011;45528;52.102;5.242;2022-11-27T02:44:08;12.4;;;4.61;;
32451;SDS011;45528;52.102;5.242;2022-11-27T02:47:26;14.0;;;4.8;;
32451;SDS011;45528;52.102;5.242;2022-11-27T02:49:06;16.11;;;4.8;;
32451;SDS011;45528;52.102;5.242;2022-11-27T02:50:49;13.4;;;5.0;;
32451;SDS011;45528;52.102;5.242;2022-11-27T02:52:28;14.7;;;4.91;;
32451;SDS011;45528;52.102;5.242;2022-11-27T02:55:53;13.3;;;5.4;;
32451;SDS011;45528;52.102;5.242;2022-11-27T02:57:32;14.1;;;5.0;;
32451;SDS011;45528;52.102;5.242;2022-11-27T02:59:11;19.41;;;5.7;;
32451;SDS011;45528;52.102;5.242;2022-11-27T03:00:51;14.7;;;5.11;;
32451;SDS011;45528;52.102;5.242;2022-11-27T03:04:12;14.8;;;5.11;;
32451;SDS011;45528;52.102;5.242;2022-11-27T03:05:54;16.8;;;5.0;;
32451;SDS011;45528;52.102;5.242;2022-11-27T03:07:42;12.3;;;5.0;;
32451;SDS011;45528;52.102;5.242;2022-11-27T03:09:25;14.9;;;5.3;;
32451;SDS011;45528;52.102;5.242;2022-11-27T03:11:10;14.3;;;5.5;;
32451;SDS011;45528;52.102;5.242;2022-11-27T03:14:26;14.9;;;5.4;;
32451;SDS011;45528;52.102;5.242;2022-11-27T03:16:05;14.9;;;5.5;;
32451;SDS011;45528;52.102;5.242;2022-11-27T03:17:48;12.1;;;5.3;;
32451;SDS011;45528;52.102;5.242;2022-11-27T03:19:31;17.11;;;5.8;;
32451;SDS011;45528;52.102;5.242;2022-11-27T03:23:03;15.4;;;5.4;;
32451;SDS011;45528;52.102;5.242;2022-11-27T03:24:39;16.2;;;5.4;;
32451;SDS011;45528;52.102;5.242;2022-11-27T03:26:16;16.8;;;5.5;;
32451;SDS011;45528;52.102;5.242;2022-11-27T03:27:54;16.11;;;5.5;;
32451;SDS011;45528;52.102;5.242;2022-11-27T03:31:19;15.7;;;5.11;;
32451;SDS011;45528;52.102;5.242;2022-11-27T03:32:56;16.4;;;4.91;;
32451;SDS011;45528;52.102;5.242;2022-11-27T03:34:33;14.0;;;5.0;;
32451;SDS011;45528;52.102;5.242;2022-11-27T03:36:12;13.1;;;5.4;;
32451;SDS011;45528;52.102;5.242;2022-11-27T03:39:28;15.2;;;5.3;;
32451;SDS011;45528;52.102;5.242;2022-11-27T03:41:07;14.8;;;5.5;;
32451;SDS011;45528;52.102;5.242;2022-11-27T03:42:53;17.0;;;5.6;;
32451;SDS011;45528;52.102;5.242;2022-11-27T03:44:40;15.6;;;5.7;;
32451;SDS011;45528;52.102;5.242;2022-11-27T03:48:14;13.4;;;5.4;;
32451;SDS011;45528;52.102;5.242;2022-11-27T03:50:02;16.11;;;5.6;;
32451;SDS011;45528;52.102;5.242;2022-11-27T03:51:51;12.4;;;5.8;;
32451;SDS011;45528;52.102;5.242;2022-11-27T03:53:37;17.41;;;5.9;;
32451;SDS011;45528;52.102;5.242;2022-11-27T03:55:27;18.2;;;5.9;;
32451;SDS011;45528;52.102;5.242;2022-11-27T03:57:13;16.4;;;5.6;;
32451;SDS011;45528;52.102;5.242;2022-11-27T04:00:40;14.3;;;5.7;;
32451;SDS011;45528;52.102;5.242;2022-11-27T04:02:26;16.5;;;5.5;;
32451;SDS011;45528;52.102;5.242;2022-11-27T04:04:04;14.7;;;5.6;;
32451;SDS011;45528;52.102;5.242;2022-11-27T04:05:41;13.1;;;5.6;;
32451;SDS011;45528;52.102;5.242;2022-11-27T04:08:53;14.2;;;5.9;;
32451;SDS011;45528;52.102;5.242;2022-11-27T04:10:30;12.8;;;5.6;;
32451;SDS011;45528;52.102;5.242;2022-11-27T04:12:06;13.5;;;5.6;;
32451;SDS011;45528;52.102;5.242;2022-11-27T04:15:18;15.3;;;5.9;;
32451;SDS011;45528;52.102;5.242;2022-11-27T04:16:54;13.6;;;6.1;;
32451;SDS011;45528;52.102;5.242;2022-11-27T04:18:30;11.3;;;5.11;;
32451;SDS011;45528;52.102;5.242;2022-11-27T04:20:09;11.3;;;5.11;;
32451;SDS011;45528;52.102;5.242;2022-11-27T04:23:24;17.61;;;6.0;;
32451;SDS011;45528;52.102;5.242;2022-11-27T04:25:00;17.3;;;6.2;;
32451;SDS011;45528;52.102;5.242;2022-11-27T04:26:36;13.0;;;5.8;;
32451;SDS011;45528;52.102;5.242;2022-11-27T04:29:48;10.6;;;5.5;;
32451;SDS011;45528;52.102;5.242;2022-11-27T04:31:25;15.8;;;5.8;;
32451;SDS011;45528;52.102;5.242;2022-11-27T04:33:01;13.1;;;5.9;;
32451;SDS011;45528;52.102;5.242;2022-11-27T04:36:14;11.3;;;5.5;;
32451;SDS011;45528;52.102;5.242;2022-11-27T04:37:50;12.7;;;6.0;;
32451;SDS011;45528;52.102;5.242;2022-11-27T04:39:26;13.2;;;5.6;;
32451;SDS011;45528;52.102;5.242;2022-11-27T04:41:02;14.0;;;5.7;;
32451;SDS011;45528;52.102;5.242;2022-11-27T04:44:15;16.11;;;5.8;;
32451;SDS011;45528;52.102;5.242;2022-11-27T04:45:52;14.4;;;6.4;;
32451;SDS011;45528;52.102;5.242;2022-11-27T04:47:29;10.5;;;5.7;;
32451;SDS011;45528;52.102;5.242;2022-11-27T04:50:41;15.9;;;6.2;;
32451;SDS011;45528;52.102;5.242;2022-11-27T04:52:17;11.5;;;5.5;;
32451;SDS011;45528;52.102;5.242;2022-11-27T04:53:54;15.3;;;5.5;;
32451;SDS011;45528;52.102;5.242;2022-11-27T04:57:06;13.8;;;6.0;;
32451;SDS011;45528;52.102;5.242;2022-11-27T04:58:42;16.2;;;6.0;;
32451;SDS011;45528;52.102;5.242;2022-11-27T05:00:19;13.6;;;5.8;;
32451;SDS011;45528;52.102;5.242;2022-11-27T05:01:56;12.9;;;5.6;;
32451;SDS011;45528;52.102;5.242;2022-11-27T05:05:10;15.5;;;5.3;;
32451;SDS011;45528;52.102;5.242;2022-11-27T05:06:46;13.6;;;5.3;;
32451;SDS011;45528;52.102;5.242;2022-11-27T05:08:22;12.5;;;5.4;;
32451;SDS011;45528;52.102;5.242;2022-11-27T05:11:35;13.5;;;4.91;;
32451;SDS011;45528;52.102;5.242;2022-11-27T05:13:11;12.8;;;5.5;;
32451;SDS011;45528;52.102;5.242;2022-11-27T05:14:48;11.2;;;5.11;;
32451;SDS011;45528;52.102;5.242;2022-11-27T05:18:01;12.9;;;4.8;;
32451;SDS011;45528;52.102;5.242;2022-11-27T05:19:37;11.7;;;5.0;;
32451;SDS011;45528;52.102;5.242;2022-11-27T05:21:13;11.6;;;5.0;;
32451;SDS011;45528;52.102;5.242;2022-11-27T05:24:26;10.1;;;5.11;;
32451;SDS011;45528;52.102;5.242;2022-11-27T05:26:04;9.81;;;4.5;;
32451;SDS011;45528;52.102;5.242;2022-11-27T05:27:40;11.8;;;4.7;;
32451;SDS011;45528;52.102;5.242;2022-11-27T05:29:16;11.2;;;4.8;;
32451;SDS011;45528;52.102;5.242;2022-11-27T05:32:30;11.8;;;4.7;;
32451;SDS011;45528;52.102;5.242;2022-11-27T05:34:06;11.8;;;4.7;;
32451;SDS011;45528;52.102;5.242;2022-11-27T05:35:44;13.5;;;5.11;;
32451;SDS011;45528;52.102;5.242;2022-11-27T05:38:57;13.0;;;4.91;;
32451;SDS011;45528;52.102;5.242;2022-11-27T05:40:36;10.9;;;5.11;;
32451;SDS011;45528;52.102;5.242;2022-11-27T05:42:12;11.0;;;4.91;;
32451;SDS011;45528;52.102;5.242;2022-11-27T05:43:48;10.6;;;4.7;;
32451;SDS011;45528;52.102;5.242;2022-11-27T05:47:00;12.1;;;4.91;;
32451;SDS011;45528;52.102;5.242;2022-11-27T05:48:37;10.0;;;4.41;;
32451;SDS011;45528;52.102;5.242;2022-11-27T05:50:13;9.6;;;4.7;;
32451;SDS011;45528;52.102;5.242;2022-11-27T05:53:25;10.1;;;4.41;;
32451;SDS011;45528;52.102;5.242;2022-11-27T05:55:01;11.6;;;4.41;;
32451;SDS011;45528;52.102;5.242;2022-11-27T05:56:38;11.3;;;4.3;;
32451;SDS011;45528;52.102;5.242;2022-11-27T05:59:51;10.7;;;4.5;;
32451;SDS011;45528;52.102;5.242;2022-11-27T06:01:28;8.9;;;4.61;;
32451;SDS011;45528;52.102;5.242;2022-11-27T06:03:05;10.8;;;4.41;;
32451;SDS011;45528;52.102;5.242;2022-11-27T06:04:41;12.8;;;4.61;;
32451;SDS011;45528;52.102;5.242;2022-11-27T06:07:54;9.21;;;4.7;;
32451;SDS011;45528;52.102;5.242;2022-11-27T06:09:30;9.71;;;4.3;;
32451;SDS011;45528;52.102;5.242;2022-11-27T06:11:07;12.1;;;4.7;;
32451;SDS011;45528;52.102;5.242;2022-11-27T06:14:25;11.9;;;5.2;;
32451;SDS011;45528;52.102;5.242;2022-11-27T06:16:03;10.7;;;4.41;;
32451;SDS011;45528;52.102;5.242;2022-11-27T06:17:41;11.8;;;4.8;;
32451;SDS011;45528;52.102;5.242;2022-11-27T06:20:53;10.3;;;4.8;;
32451;SDS011;45528;52.102;5.242;2022-11-27T06:22:30;12.3;;;4.8;;
32451;SDS011;45528;52.102;5.242;2022-11-27T06:24:06;11.1;;;4.41;;
32451;SDS011;45528;52.102;5.242;2022-11-27T06:25:42;10.4;;;4.8;;
32451;SDS011;45528;52.102;5.242;2022-11-27T06:28:55;9.6;;;4.3;;
32451;SDS011;45528;52.102;5.242;2022-11-27T06:30:32;8.4;;;4.1;;
32451;SDS011;45528;52.102;5.242;2022-11-27T06:32:09;9.0;;;4.0;;
32451;SDS011;45528;52.102;5.242;2022-11-27T06:35:23;10.6;;;4.3;;
32451;SDS011;45528;52.102;5.242;2022-11-27T06:36:59;12.0;;;4.5;;
32451;SDS011;45528;52.102;5.242;2022-11-27T06:38:35;8.81;;;3.9;;
32451;SDS011;45528;52.102;5.242;2022-11-27T06:41:49;12.6;;;5.11;;
32451;SDS011;45528;52.102;5.242;2022-11-27T06:43:26;10.7;;;4.61;;
32451;SDS011;45528;52.102;5.242;2022-11-27T06:45:02;10.0;;;4.5;;
32451;SDS011;45528;52.102;5.242;2022-11-27T06:46:40;8.31;;;4.5;;
32451;SDS011;45528;52.102;5.242;2022-11-27T06:49:52;12.2;;;4.3;;
32451;SDS011;45528;52.102;5.242;2022-11-27T06:51:29;12.9;;;4.8;;
32451;SDS011;45528;52.102;5.242;2022-11-27T06:53:06;8.71;;;4.1;;
32451;SDS011;45528;52.102;5.242;2022-11-27T06:56:20;9.5;;;4.2;;
32451;SDS011;45528;52.102;5.242;2022-11-27T06:57:58;11.8;;;4.2;;
32451;SDS011;45528;52.102;5.242;2022-11-27T06:59:34;8.1;;;4.0;;
32451;SDS011;45528;52.102;5.242;2022-11-27T07:02:52;9.4;;;4.3;;
32451;SDS011;45528;52.102;5.242;2022-11-27T07:04:28;9.4;;;4.3;;
32451;SDS011;45528;52.102;5.242;2022-11-27T07:06:06;9.4;;;4.41;;
32451;SDS011;45528;52.102;5.242;2022-11-27T07:07:44;9.31;;;4.61;;
32451;SDS011;45528;52.102;5.242;2022-11-27T07:11:00;9.6;;;4.5;;
32451;SDS011;45528;52.102;5.242;2022-11-27T07:12:36;11.7;;;4.61;;
32451;SDS011;45528;52.102;5.242;2022-11-27T07:14:12;11.1;;;4.41;;
32451;SDS011;45528;52.102;5.242;2022-11-27T07:17:25;9.9;;;4.41;;
32451;SDS011;45528;52.102;5.242;2022-11-27T07:19:03;11.8;;;4.7;;
32451;SDS011;45528;52.102;5.242;2022-11-27T07:20:40;13.5;;;4.61;;
32451;SDS011;45528;52.102;5.242;2022-11-27T07:22:16;10.8;;;4.1;;
32451;SDS011;45528;52.102;5.242;2022-11-27T07:25:30;10.5;;;4.7;;
32451;SDS011;45528;52.102;5.242;2022-11-27T07:27:06;8.71;;;4.41;;
32451;SDS011;45528;52.102;5.242;2022-11-27T07:28:43;11.6;;;4.5;;
32451;SDS011;45528;52.102;5.242;2022-11-27T07:31:56;11.1;;;5.0;;
32451;SDS011;45528;52.102;5.242;2022-11-27T07:33:32;8.71;;;4.0;;
32451;SDS011;45528;52.102;5.242;2022-11-27T07:35:09;9.9;;;4.41;;
32451;SDS011;45528;52.102;5.242;2022-11-27T07:38:21;11.0;;;4.8;;
32451;SDS011;45528;52.102;5.242;2022-11-27T07:39:58;10.6;;;4.3;;
32451;SDS011;45528;52.102;5.242;2022-11-27T07:41:34;9.71;;;4.8;;
32451;SDS011;45528;52.102;5.242;2022-11-27T07:43:11;13.4;;;5.2;;
32451;SDS011;45528;52.102;5.242;2022-11-27T07:46:24;13.0;;;4.8;;
32451;SDS011;45528;52.102;5.242;2022-11-27T07:48:01;14.6;;;5.3;;
32451;SDS011;45528;52.102;5.242;2022-11-27T07:49:37;12.7;;;5.11;;
32451;SDS011;45528;52.102;5.242;2022-11-27T07:52:52;13.8;;;5.3;;
32451;SDS011;45528;52.102;5.242;2022-11-27T07:54:29;12.1;;;5.0;;
32451;SDS011;45528;52.102;5.242;2022-11-27T07:56:07;11.3;;;4.7;;
32451;SDS011;45528;52.102;5.242;2022-11-27T07:57:48;13.1;;;4.8;;
32451;SDS011;45528;52.102;5.242;2022-11-27T08:01:00;12.4;;;4.8;;
32451;SDS011;45528;52.102;5.242;2022-11-27T08:02:41;13.0;;;4.91;;
32451;SDS011;45528;52.102;5.242;2022-11-27T08:04:19;9.71;;;4.61;;
32451;SDS011;45528;52.102;5.242;2022-11-27T08:07:32;10.21;;;4.8;;
32451;SDS011;45528;52.102;5.242;2022-11-27T08:09:08;13.0;;;4.91;;
32451;SDS011;45528;52.102;5.242;2022-11-27T08:10:44;12.1;;;4.91;;
32451;SDS011;45528;52.102;5.242;2022-11-27T08:12:21;11.8;;;4.5;;
32451;SDS011;45528;52.102;5.242;2022-11-27T08:15:38;12.4;;;4.7;;
32451;SDS011;45528;52.102;5.242;2022-11-27T08:17:14;12.9;;;4.61;;
32451;SDS011;45528;52.102;5.242;2022-11-27T08:18:50;11.3;;;5.2;;
32451;SDS011;45528;52.102;5.242;2022-11-27T08:22:08;12.4;;;5.11;;
32451;SDS011;45528;52.102;5.242;2022-11-27T08:23:47;12.8;;;4.61;;
32451;SDS011;45528;52.102;5.242;2022-11-27T08:25:24;10.9;;;4.5;;
32451;SDS011;45528;52.102;5.242;2022-11-27T08:27:01;12.1;;;5.11;;
32451;SDS011;45528;52.102;5.242;2022-11-27T08:30:15;13.1;;;4.7;;
32451;SDS011;45528;52.102;5.242;2022-11-27T08:31:52;9.0;;;4.41;;
32451;SDS011;45528;52.102;5.242;2022-11-27T08:33:29;9.81;;;4.5;;
32451;SDS011;45528;52.102;5.242;2022-11-27T08:36:45;16.2;;;5.3;;
32451;SDS011;45528;52.102;5.242;2022-11-27T08:38:21;12.5;;;5.5;;
32451;SDS011;45528;52.102;5.242;2022-11-27T08:39:58;14.6;;;5.5;;
32451;SDS011;45528;52.102;5.242;2022-11-27T08:43:12;9.0;;;4.41;;
32451;SDS011;45528;52.102;5.242;2022-11-27T08:44:48;10.5;;;5.11;;
32451;SDS011;45528;52.102;5.242;2022-11-27T08:46:25;15.8;;;5.2;;
32451;SDS011;45528;52.102;5.242;2022-11-27T08:48:03;10.9;;;5.11;;
32451;SDS011;45528;52.102;5.242;2022-11-27T08:51:16;17.3;;;5.11;;
32451;SDS011;45528;52.102;5.242;2022-11-27T08:52:52;17.3;;;5.2;;
32451;SDS011;45528;52.102;5.242;2022-11-27T08:54:28;12.2;;;5.11;;
32451;SDS011;45528;52.102;5.242;2022-11-27T08:57:42;10.8;;;4.91;;
32451;SDS011;45528;52.102;5.242;2022-11-27T08:59:19;11.7;;;4.8;;
32451;SDS011;45528;52.102;5.242;2022-11-27T09:00:55;13.7;;;5.0;;
32451;SDS011;45528;52.102;5.242;2022-11-27T09:04:08;12.2;;;4.7;;
32451;SDS011;45528;52.102;5.242;2022-11-27T09:05:44;10.9;;;4.8;;
32451;SDS011;45528;52.102;5.242;2022-11-27T09:07:20;13.2;;;4.5;;
32451;SDS011;45528;52.102;5.242;2022-11-27T09:08:57;11.2;;;4.5;;
32451;SDS011;45528;52.102;5.242;2022-11-27T09:12:12;12.5;;;4.8;;
32451;SDS011;45528;52.102;5.242;2022-11-27T09:13:48;10.7;;;4.8;;
32451;SDS011;45528;52.102;5.242;2022-11-27T09:15:25;11.7;;;4.7;;
32451;SDS011;45528;52.102;5.242;2022-11-27T09:18:39;11.9;;;5.0;;
32451;SDS011;45528;52.102;5.242;2022-11-27T09:20:16;13.4;;;4.7;;
32451;SDS011;45528;52.102;5.242;2022-11-27T09:21:52;13.6;;;5.11;;
32451;SDS011;45528;52.102;5.242;2022-11-27T09:23:28;12.4;;;5.3;;
32451;SDS011;45528;52.102;5.242;2022-11-27T09:26:43;11.8;;;5.6;;
32451;SDS011;45528;52.102;5.242;2022-11-27T09:28:19;13.0;;;5.4;;
32451;SDS011;45528;52.102;5.242;2022-11-27T09:29:56;10.0;;;5.0;;
32451;SDS011;45528;52.102;5.242;2022-11-27T09:33:08;10.5;;;5.9;;
32451;SDS011;45528;52.102;5.242;2022-11-27T09:34:44;15.8;;;8.0;;
32451;SDS011;45528;52.102;5.242;2022-11-27T09:36:21;14.3;;;6.4;;
32451;SDS011;45528;52.102;5.242;2022-11-27T09:39:35;11.6;;;5.7;;
32451;SDS011;45528;52.102;5.242;2022-11-27T09:41:16;14.0;;;5.6;;
32451;SDS011;45528;52.102;5.242;2022-11-27T09:43:10;12.1;;;5.5;;
32451;SDS011;45528;52.102;5.242;2022-11-27T09:44:48;13.8;;;5.5;;
32451;SDS011;45528;52.102;5.242;2022-11-27T09:46:31;11.1;;;5.11;;
32451;SDS011;45528;52.102;5.242;2022-11-27T09:49:58;12.2;;;5.6;;
32451;SDS011;45528;52.102;5.242;2022-11-27T09:51:39;14.9;;;5.9;;
32451;SDS011;45528;52.102;5.242;2022-11-27T09:53:23;13.1;;;5.6;;
32451;SDS011;45528;52.102;5.242;2022-11-27T09:55:09;14.2;;;5.5;;
32451;SDS011;45528;52.102;5.242;2022-11-27T09:58:34;11.6;;;5.7;;
32451;SDS011;45528;52.102;5.242;2022-11-27T10:00:14;10.7;;;5.5;;
32451;SDS011;45528;52.102;5.242;2022-11-27T10:01:53;11.6;;;5.8;;
32451;SDS011;45528;52.102;5.242;2022-11-27T10:03:30;10.5;;;5.4;;
32451;SDS011;45528;52.102;5.242;2022-11-27T10:06:58;14.4;;;6.1;;
32451;SDS011;45528;52.102;5.242;2022-11-27T10:08:51;13.2;;;6.2;;
32451;SDS011;45528;52.102;5.242;2022-11-27T10:10:41;12.1;;;5.7;;
32451;SDS011;45528;52.102;5.242;2022-11-27T10:12:27;11.4;;;5.6;;
32451;SDS011;45528;52.102;5.242;2022-11-27T10:14:19;12.8;;;6.0;;
32451;SDS011;45528;52.102;5.242;2022-11-27T10:16:08;12.9;;;6.1;;
32451;SDS011;45528;52.102;5.242;2022-11-27T10:17:56;17.2;;;7.1;;
32451;SDS011;45528;52.102;5.242;2022-11-27T10:21:30;10.7;;;5.11;;
32451;SDS011;45528;52.102;5.242;2022-11-27T10:23:20;9.6;;;5.3;;
32451;SDS011;45528;52.102;5.242;2022-11-27T10:25:15;13.9;;;5.8;;
32451;SDS011;45528;52.102;5.242;2022-11-27T10:26:55;9.71;;;5.7;;
32451;SDS011;45528;52.102;5.242;2022-11-27T10:28:35;14.4;;;6.1;;
32451;SDS011;45528;52.102;5.242;2022-11-27T10:31:58;12.0;;;5.9;;
32451;SDS011;45528;52.102;5.242;2022-11-27T10:33:40;15.2;;;5.7;;
32451;SDS011;45528;52.102;5.242;2022-11-27T10:35:21;11.1;;;5.4;;
32451;SDS011;45528;52.102;5.242;2022-11-27T10:36:59;11.1;;;5.9;;
32451;SDS011;45528;52.102;5.242;2022-11-27T10:40:22;12.5;;;6.1;;
32451;SDS011;45528;52.102;5.242;2022-11-27T10:42:02;13.9;;;5.9;;
32451;SDS011;45528;52.102;5.242;2022-11-27T10:43:44;13.0;;;5.8;;
32451;SDS011;45528;52.102;5.242;2022-11-27T10:45:26;12.8;;;5.8;;
32451;SDS011;45528;52.102;5.242;2022-11-27T10:47:12;10.9;;;5.9;;
32451;SDS011;45528;52.102;5.242;2022-11-27T10:50:27;14.1;;;6.3;;
32451;SDS011;45528;52.102;5.242;2022-11-27T10:52:04;13.1;;;5.6;;
32451;SDS011;45528;52.102;5.242;2022-11-27T10:53:41;11.7;;;6.0;;
32451;SDS011;45528;52.102;5.242;2022-11-27T10:57:27;12.5;;;6.0;;
32451;SDS011;45528;52.102;5.242;2022-11-27T10:59:44;12.5;;;6.0;;
32451;SDS011;45528;52.102;5.242;2022-11-27T11:01:40;13.4;;;5.9;;
32451;SDS011;45528;52.102;5.242;2022-11-27T11:03:18;11.4;;;5.5;;
32451;SDS011;45528;52.102;5.242;2022-11-27T11:04:54;10.0;;;5.7;;
32451;SDS011;45528;52.102;5.242;2022-11-27T11:06:30;13.4;;;6.1;;
32451;SDS011;45528;52.102;5.242;2022-11-27T11:08:14;12.4;;;6.3;;
32451;SDS011;45528;52.102;5.242;2022-11-27T11:11:30;15.0;;;6.8;;
32451;SDS011;45528;52.102;5.242;2022-11-27T11:13:12;12.7;;;6.5;;
32451;SDS011;45528;52.102;5.242;2022-11-27T11:14:52;12.9;;;6.8;;
32451;SDS011;45528;52.102;5.242;2022-11-27T11:16:31;12.1;;;6.7;;
32451;SDS011;45528;52.102;5.242;2022-11-27T11:19:57;12.2;;;6.4;;
32451;SDS011;45528;52.102;5.242;2022-11-27T11:21:34;12.1;;;6.3;;
32451;SDS011;45528;52.102;5.242;2022-11-27T11:23:18;12.6;;;6.4;;
32451;SDS011;45528;52.102;5.242;2022-11-27T11:25:02;13.9;;;6.4;;
32451;SDS011;45528;52.102;5.242;2022-11-27T11:28:21;13.9;;;7.0;;
32451;SDS011;45528;52.102;5.242;2022-11-27T11:30:00;12.2;;;6.6;;
32451;SDS011;45528;52.102;5.242;2022-11-27T11:31:39;13.4;;;6.4;;
32451;SDS011;45528;52.102;5.242;2022-11-27T11:33:16;12.3;;;6.2;;
32451;SDS011;45528;52.102;5.242;2022-11-27T11:36:32;12.4;;;6.4;;
32451;SDS011;45528;52.102;5.242;2022-11-27T11:38:13;15.5;;;7.2;;
32451;SDS011;45528;52.102;5.242;2022-11-27T11:39:53;14.0;;;7.3;;
32451;SDS011;45528;52.102;5.242;2022-11-27T11:43:21;11.0;;;6.5;;
32451;SDS011;45528;52.102;5.242;2022-11-27T11:45:02;13.4;;;7.6;;
32451;SDS011;45528;52.102;5.242;2022-11-27T11:46:41;13.7;;;6.9;;
32451;SDS011;45528;52.102;5.242;2022-11-27T11:48:27;11.5;;;6.1;;
32451;SDS011;45528;52.102;5.242;2022-11-27T11:50:03;12.2;;;6.7;;
32451;SDS011;45528;52.102;5.242;2022-11-27T11:54:13;13.0;;;6.9;;
32451;SDS011;45528;52.102;5.242;2022-11-27T11:56:05;14.8;;;6.9;;
32451;SDS011;45528;52.102;5.242;2022-11-27T11:58:05;11.6;;;6.4;;
32451;SDS011;45528;52.102;5.242;2022-11-27T12:00:03;12.7;;;6.7;;
32451;SDS011;45528;52.102;5.242;2022-11-27T12:01:45;15.5;;;6.9;;
32451;SDS011;45528;52.102;5.242;2022-11-27T12:03:42;13.8;;;8.9;;
32451;SDS011;45528;52.102;5.242;2022-11-27T12:05:35;16.4;;;7.5;;
32451;SDS011;45528;52.102;5.242;2022-11-27T12:07:19;13.5;;;7.3;;
32451;SDS011;45528;52.102;5.242;2022-11-27T12:09:12;12.5;;;7.1;;
32451;SDS011;45528;52.102;5.242;2022-11-27T12:11:04;11.2;;;6.8;;
32451;SDS011;45528;52.102;5.242;2022-11-27T12:14:39;12.4;;;7.3;;
32451;SDS011;45528;52.102;5.242;2022-11-27T12:16:21;10.9;;;7.1;;
32451;SDS011;45528;52.102;5.242;2022-11-27T12:18:09;12.0;;;6.9;;
32451;SDS011;45528;52.102;5.242;2022-11-27T12:19:57;12.9;;;6.8;;
32451;SDS011;45528;52.102;5.242;2022-11-27T12:21:54;12.5;;;6.5;;
32451;SDS011;45528;52.102;5.242;2022-11-27T12:23:52;11.8;;;7.2;;
32451;SDS011;45528;52.102;5.242;2022-11-27T12:25:43;12.3;;;6.8;;
32451;SDS011;45528;52.102;5.242;2022-11-27T12:29:51;11.6;;;6.7;;
32451;SDS011;45528;52.102;5.242;2022-11-27T12:31:57;12.5;;;6.9;;
32451;SDS011;45528;52.102;5.242;2022-11-27T12:35:37;12.3;;;6.7;;
32451;SDS011;45528;52.102;5.242;2022-11-27T12:37:23;12.3;;;6.7;;
32451;SDS011;45528;52.102;5.242;2022-11-27T12:39:16;14.1;;;6.9;;
32451;SDS011;45528;52.102;5.242;2022-11-27T12:41:10;13.1;;;7.0;;
32451;SDS011;45528;52.102;5.242;2022-11-27T12:43:04;13.6;;;6.8;;
32451;SDS011;45528;52.102;5.242;2022-11-27T12:44:53;10.1;;;6.7;;
32451;SDS011;45528;52.102;5.242;2022-11-27T12:46:45;12.3;;;7.0;;